sensor_id;sensor_type;location;lat;lon;timestamp;P1;durP1;ratioP1;P2;durP2;ratioP2
35961;SDS011;22044;48.298;10.008;2023-04-03T00:01:30;8.50;;;7.60;;
35961;SDS011;22044;48.298;10.008;2023-04-03T00:04:16;9.70;;;8.40;;
35961;SDS011;22044;48.298;10.008;2023-04-03T00:07:02;10.20;;;8.23;;
35961;SDS011;22044;48.298;10.008;2023-04-03T00:09:48;8.20;;;7.33;;
35961;SDS011;22044;48.298;10.008;2023-04-03T00:12:33;9.70;;;8.17;;
35961;SDS011;22044;48.298;10.008;2023-04-03T00:15:19;8.23;;;7.43;;
35961;SDS011;22044;48.298;10.008;2023-04-03T00:18:06;8.10;;;7.03;;
35961;SDS011;22044;48.298;10.008;2023-04-03T00:20:53;8.67;;;7.00;;
35961;SDS011;22044;48.298;10.008;2023-04-03T00:23:39;8.93;;;7.43;;
35961;SDS011;22044;48.298;10.008;2023-04-03T00:26:24;7.30;;;6.47;;
35961;SDS011;22044;48.298;10.008;2023-04-03T00:29:10;7.70;;;6.37;;
35961;SDS011;22044;48.298;10.008;2023-04-03T00:31:56;8.67;;;6.73;;
35961;SDS011;22044;48.298;10.008;2023-04-03T00:34:41;7.20;;;6.37;;
35961;SDS011;22044;48.298;10.008;2023-04-03T00:37:28;7.80;;;7.00;;
35961;SDS011;22044;48.298;10.008;2023-04-03T00:40:15;7.82;;;7.10;;
35961;SDS011;22044;48.298;10.008;2023-04-03T00:43:00;7.27;;;6.40;;
35961;SDS011;22044;48.298;10.008;2023-04-03T00:45:47;7.13;;;6.37;;
35961;SDS011;22044;48.298;10.008;2023-04-03T00:48:35;6.30;;;5.57;;
35961;SDS011;22044;48.298;10.008;2023-04-03T00:51:23;7.37;;;6.40;;
35961;SDS011;22044;48.298;10.008;2023-04-03T00:54:12;7.13;;;6.17;;
35961;SDS011;22044;48.298;10.008;2023-04-03T00:56:58;6.13;;;5.53;;
35961;SDS011;22044;48.298;10.008;2023-04-03T00:59:44;7.43;;;6.10;;
35961;SDS011;22044;48.298;10.008;2023-04-03T01:02:34;5.87;;;5.27;;
35961;SDS011;22044;48.298;10.008;2023-04-03T01:05:20;6.70;;;5.90;;
35961;SDS011;22044;48.298;10.008;2023-04-03T01:08:06;6.17;;;5.03;;
35961;SDS011;22044;48.298;10.008;2023-04-03T01:10:53;5.37;;;4.87;;
35961;SDS011;22044;48.298;10.008;2023-04-03T01:13:40;5.10;;;4.60;;
35961;SDS011;22044;48.298;10.008;2023-04-03T01:16:25;5.50;;;4.97;;
35961;SDS011;22044;48.298;10.008;2023-04-03T01:19:15;5.23;;;4.73;;
35961;SDS011;22044;48.298;10.008;2023-04-03T01:22:04;7.97;;;5.10;;
35961;SDS011;22044;48.298;10.008;2023-04-03T01:25:00;6.27;;;5.03;;
35961;SDS011;22044;48.298;10.008;2023-04-03T01:27:47;7.03;;;5.37;;
35961;SDS011;22044;48.298;10.008;2023-04-03T01:30:34;6.93;;;5.03;;
35961;SDS011;22044;48.298;10.008;2023-04-03T01:33:29;5.70;;;5.10;;
35961;SDS011;22044;48.298;10.008;2023-04-03T01:36:16;6.63;;;5.50;;
35961;SDS011;22044;48.298;10.008;2023-04-03T01:39:06;5.60;;;5.10;;
35961;SDS011;22044;48.298;10.008;2023-04-03T01:41:53;8.37;;;5.20;;
35961;SDS011;22044;48.298;10.008;2023-04-03T01:44:45;5.00;;;4.50;;
35961;SDS011;22044;48.298;10.008;2023-04-03T01:47:31;5.17;;;4.67;;
35961;SDS011;22044;48.298;10.008;2023-04-03T01:50:19;5.70;;;5.17;;
35961;SDS011;22044;48.298;10.008;2023-04-03T01:53:05;5.60;;;4.97;;
35961;SDS011;22044;48.298;10.008;2023-04-03T01:55:51;6.07;;;4.63;;
35961;SDS011;22044;48.298;10.008;2023-04-03T01:58:37;6.10;;;4.70;;
35961;SDS011;22044;48.298;10.008;2023-04-03T02:01:23;6.40;;;5.03;;
35961;SDS011;22044;48.298;10.008;2023-04-03T02:04:10;6.07;;;5.47;;
35961;SDS011;22044;48.298;10.008;2023-04-03T02:06:57;7.40;;;5.17;;
35961;SDS011;22044;48.298;10.008;2023-04-03T02:09:43;7.00;;;5.57;;
35961;SDS011;22044;48.298;10.008;2023-04-03T02:12:29;6.43;;;4.63;;
35961;SDS011;22044;48.298;10.008;2023-04-03T02:15:16;5.83;;;5.03;;
35961;SDS011;22044;48.298;10.008;2023-04-03T02:18:01;6.50;;;5.90;;
35961;SDS011;22044;48.298;10.008;2023-04-03T02:20:47;7.40;;;5.17;;
35961;SDS011;22044;48.298;10.008;2023-04-03T02:23:34;5.13;;;4.63;;
35961;SDS011;22044;48.298;10.008;2023-04-03T02:26:20;6.50;;;5.07;;
35961;SDS011;22044;48.298;10.008;2023-04-03T02:29:06;5.37;;;4.80;;
35961;SDS011;22044;48.298;10.008;2023-04-03T02:31:52;6.37;;;4.87;;
35961;SDS011;22044;48.298;10.008;2023-04-03T02:34:40;4.43;;;4.03;;
35961;SDS011;22044;48.298;10.008;2023-04-03T02:37:28;6.73;;;5.30;;
35961;SDS011;22044;48.298;10.008;2023-04-03T02:40:15;6.17;;;4.80;;
35961;SDS011;22044;48.298;10.008;2023-04-03T02:43:01;5.23;;;4.73;;
35961;SDS011;22044;48.298;10.008;2023-04-03T02:45:46;5.07;;;4.57;;
35961;SDS011;22044;48.298;10.008;2023-04-03T02:48:32;5.40;;;4.80;;
35961;SDS011;22044;48.298;10.008;2023-04-03T02:51:19;6.73;;;4.90;;
35961;SDS011;22044;48.298;10.008;2023-04-03T02:54:04;8.03;;;5.17;;
35961;SDS011;22044;48.298;10.008;2023-04-03T02:56:54;5.40;;;4.60;;
35961;SDS011;22044;48.298;10.008;2023-04-03T02:59:39;5.83;;;5.23;;
35961;SDS011;22044;48.298;10.008;2023-04-03T03:02:27;5.67;;;5.00;;
35961;SDS011;22044;48.298;10.008;2023-04-03T03:05:12;5.83;;;5.13;;
35961;SDS011;22044;48.298;10.008;2023-04-03T03:07:58;6.00;;;5.40;;
35961;SDS011;22044;48.298;10.008;2023-04-03T03:10:44;5.90;;;4.90;;
35961;SDS011;22044;48.298;10.008;2023-04-03T03:13:31;5.97;;;5.23;;
35961;SDS011;22044;48.298;10.008;2023-04-03T03:16:18;7.90;;;5.20;;
35961;SDS011;22044;48.298;10.008;2023-04-03T03:19:04;5.30;;;4.80;;
35961;SDS011;22044;48.298;10.008;2023-04-03T03:21:50;6.37;;;5.37;;
35961;SDS011;22044;48.298;10.008;2023-04-03T03:24:36;6.83;;;5.27;;
35961;SDS011;22044;48.298;10.008;2023-04-03T03:27:22;6.97;;;5.47;;
35961;SDS011;22044;48.298;10.008;2023-04-03T03:30:09;4.93;;;4.43;;
35961;SDS011;22044;48.298;10.008;2023-04-03T03:32:55;4.87;;;4.43;;
35961;SDS011;22044;48.298;10.008;2023-04-03T03:35:41;5.80;;;4.80;;
35961;SDS011;22044;48.298;10.008;2023-04-03T03:38:28;5.53;;;4.90;;
35961;SDS011;22044;48.298;10.008;2023-04-03T03:41:13;7.23;;;5.53;;
35961;SDS011;22044;48.298;10.008;2023-04-03T03:44:01;5.00;;;4.60;;
35961;SDS011;22044;48.298;10.008;2023-04-03T03:46:50;6.47;;;5.10;;
35961;SDS011;22044;48.298;10.008;2023-04-03T03:49:36;4.53;;;4.13;;
35961;SDS011;22044;48.298;10.008;2023-04-03T03:52:22;5.77;;;4.97;;
35961;SDS011;22044;48.298;10.008;2023-04-03T03:55:08;4.80;;;4.30;;
35961;SDS011;22044;48.298;10.008;2023-04-03T03:57:54;4.37;;;3.93;;
35961;SDS011;22044;48.298;10.008;2023-04-03T04:00:40;4.97;;;4.30;;
35961;SDS011;22044;48.298;10.008;2023-04-03T04:03:28;6.37;;;4.03;;
35961;SDS011;22044;48.298;10.008;2023-04-03T04:06:14;4.47;;;3.80;;
35961;SDS011;22044;48.298;10.008;2023-04-03T04:08:59;4.17;;;3.73;;
35961;SDS011;22044;48.298;10.008;2023-04-03T04:11:46;5.07;;;3.33;;
35961;SDS011;22044;48.298;10.008;2023-04-03T04:14:34;3.40;;;2.90;;
35961;SDS011;22044;48.298;10.008;2023-04-03T04:17:19;3.60;;;3.00;;
35961;SDS011;22044;48.298;10.008;2023-04-03T04:20:09;3.37;;;3.07;;
35961;SDS011;22044;48.298;10.008;2023-04-03T04:22:56;2.87;;;2.53;;
35961;SDS011;22044;48.298;10.008;2023-04-03T04:25:43;3.83;;;3.20;;
35961;SDS011;22044;48.298;10.008;2023-04-03T04:28:30;4.13;;;3.10;;
35961;SDS011;22044;48.298;10.008;2023-04-03T04:31:18;4.20;;;3.33;;
35961;SDS011;22044;48.298;10.008;2023-04-03T04:34:03;3.92;;;2.83;;
35961;SDS011;22044;48.298;10.008;2023-04-03T04:36:51;3.20;;;2.90;;
35961;SDS011;22044;48.298;10.008;2023-04-03T04:39:37;3.73;;;2.77;;
35961;SDS011;22044;48.298;10.008;2023-04-03T04:42:23;3.17;;;2.87;;
35961;SDS011;22044;48.298;10.008;2023-04-03T04:45:09;3.47;;;2.67;;
35961;SDS011;22044;48.298;10.008;2023-04-03T04:47:57;4.23;;;2.93;;
35961;SDS011;22044;48.298;10.008;2023-04-03T04:50:43;3.23;;;2.80;;
35961;SDS011;22044;48.298;10.008;2023-04-03T04:53:30;3.57;;;2.97;;
35961;SDS011;22044;48.298;10.008;2023-04-03T04:56:16;3.40;;;3.00;;
35961;SDS011;22044;48.298;10.008;2023-04-03T04:59:02;4.30;;;3.00;;
35961;SDS011;22044;48.298;10.008;2023-04-03T05:01:49;4.77;;;3.30;;
35961;SDS011;22044;48.298;10.008;2023-04-03T05:04:35;3.23;;;2.80;;
35961;SDS011;22044;48.298;10.008;2023-04-03T05:07:27;4.33;;;3.23;;
35961;SDS011;22044;48.298;10.008;2023-04-03T05:10:17;3.43;;;3.13;;
35961;SDS011;22044;48.298;10.008;2023-04-03T05:13:04;3.20;;;2.90;;
35961;SDS011;22044;48.298;10.008;2023-04-03T05:15:50;4.17;;;3.50;;
35961;SDS011;22044;48.298;10.008;2023-04-03T05:18:36;3.90;;;3.50;;
35961;SDS011;22044;48.298;10.008;2023-04-03T05:21:26;3.27;;;2.93;;
35961;SDS011;22044;48.298;10.008;2023-04-03T05:24:16;4.43;;;3.40;;
35961;SDS011;22044;48.298;10.008;2023-04-03T05:27:03;6.77;;;3.67;;
35961;SDS011;22044;48.298;10.008;2023-04-03T05:29:52;6.43;;;3.40;;
35961;SDS011;22044;48.298;10.008;2023-04-03T05:32:40;3.50;;;3.20;;
35961;SDS011;22044;48.298;10.008;2023-04-03T05:35:38;3.10;;;2.80;;
35961;SDS011;22044;48.298;10.008;2023-04-03T05:38:27;4.53;;;3.80;;
35961;SDS011;22044;48.298;10.008;2023-04-03T05:41:13;4.33;;;3.20;;
35961;SDS011;22044;48.298;10.008;2023-04-03T05:44:04;4.13;;;3.30;;
35961;SDS011;22044;48.298;10.008;2023-04-03T05:46:50;4.50;;;3.00;;
35961;SDS011;22044;48.298;10.008;2023-04-03T05:49:37;3.73;;;3.30;;
35961;SDS011;22044;48.298;10.008;2023-04-03T05:52:27;5.93;;;3.67;;
35961;SDS011;22044;48.298;10.008;2023-04-03T05:55:15;3.47;;;3.17;;
35961;SDS011;22044;48.298;10.008;2023-04-03T05:58:00;5.77;;;3.37;;
35961;SDS011;22044;48.298;10.008;2023-04-03T06:00:47;4.10;;;3.70;;
35961;SDS011;22044;48.298;10.008;2023-04-03T06:03:33;5.60;;;3.60;;
35961;SDS011;22044;48.298;10.008;2023-04-03T06:06:19;4.10;;;3.70;;
35961;SDS011;22044;48.298;10.008;2023-04-03T06:09:05;6.27;;;5.13;;
35961;SDS011;22044;48.298;10.008;2023-04-03T06:11:51;3.87;;;3.50;;
35961;SDS011;22044;48.298;10.008;2023-04-03T06:14:39;6.33;;;3.73;;
35961;SDS011;22044;48.298;10.008;2023-04-03T06:17:26;4.97;;;4.03;;
35961;SDS011;22044;48.298;10.008;2023-04-03T06:20:13;4.10;;;3.60;;
35961;SDS011;22044;48.298;10.008;2023-04-03T06:22:59;4.17;;;3.77;;
35961;SDS011;22044;48.298;10.008;2023-04-03T06:25:45;3.90;;;3.50;;
35961;SDS011;22044;48.298;10.008;2023-04-03T06:28:31;5.27;;;3.27;;
35961;SDS011;22044;48.298;10.008;2023-04-03T06:31:17;5.63;;;4.20;;
35961;SDS011;22044;48.298;10.008;2023-04-03T06:34:04;5.00;;;3.50;;
35961;SDS011;22044;48.298;10.008;2023-04-03T06:36:50;4.33;;;3.90;;
35961;SDS011;22044;48.298;10.008;2023-04-03T06:39:37;3.90;;;3.50;;
35961;SDS011;22044;48.298;10.008;2023-04-03T06:42:23;4.43;;;3.80;;
35961;SDS011;22044;48.298;10.008;2023-04-03T06:45:23;5.73;;;4.03;;
35961;SDS011;22044;48.298;10.008;2023-04-03T06:48:09;4.17;;;3.57;;
35961;SDS011;22044;48.298;10.008;2023-04-03T06:50:56;5.63;;;4.00;;
35961;SDS011;22044;48.298;10.008;2023-04-03T06:53:42;4.97;;;3.60;;
35961;SDS011;22044;48.298;10.008;2023-04-03T06:56:28;4.73;;;4.27;;
35961;SDS011;22044;48.298;10.008;2023-04-03T06:59:14;7.77;;;3.90;;
35961;SDS011;22044;48.298;10.008;2023-04-03T07:02:00;4.07;;;3.67;;
35961;SDS011;22044;48.298;10.008;2023-04-03T07:04:45;5.37;;;4.37;;
35961;SDS011;22044;48.298;10.008;2023-04-03T07:07:33;6.60;;;3.87;;
35961;SDS011;22044;48.298;10.008;2023-04-03T07:10:18;4.60;;;4.13;;
35961;SDS011;22044;48.298;10.008;2023-04-03T07:13:04;5.03;;;4.10;;
35961;SDS011;22044;48.298;10.008;2023-04-03T07:15:50;4.93;;;4.10;;
35961;SDS011;22044;48.298;10.008;2023-04-03T07:18:35;4.87;;;4.10;;
35961;SDS011;22044;48.298;10.008;2023-04-03T07:21:21;8.63;;;4.30;;
35961;SDS011;22044;48.298;10.008;2023-04-03T07:24:08;5.70;;;4.97;;
35961;SDS011;22044;48.298;10.008;2023-04-03T07:26:54;6.47;;;4.10;;
35961;SDS011;22044;48.298;10.008;2023-04-03T07:29:39;7.47;;;4.30;;
35961;SDS011;22044;48.298;10.008;2023-04-03T07:32:26;4.63;;;4.10;;
35961;SDS011;22044;48.298;10.008;2023-04-03T07:35:12;6.53;;;4.27;;
35961;SDS011;22044;48.298;10.008;2023-04-03T07:37:58;7.93;;;4.53;;
35961;SDS011;22044;48.298;10.008;2023-04-03T07:40:46;6.40;;;4.37;;
35961;SDS011;22044;48.298;10.008;2023-04-03T07:43:32;7.83;;;4.97;;
35961;SDS011;22044;48.298;10.008;2023-04-03T07:46:18;9.90;;;4.57;;
35961;SDS011;22044;48.298;10.008;2023-04-03T07:49:04;8.47;;;4.43;;
35961;SDS011;22044;48.298;10.008;2023-04-03T07:51:50;8.00;;;5.13;;
35961;SDS011;22044;48.298;10.008;2023-04-03T07:54:36;6.13;;;4.83;;
35961;SDS011;22044;48.298;10.008;2023-04-03T07:57:23;7.63;;;4.93;;
35961;SDS011;22044;48.298;10.008;2023-04-03T08:00:09;5.73;;;4.50;;
35961;SDS011;22044;48.298;10.008;2023-04-03T08:02:56;5.07;;;4.23;;
35961;SDS011;22044;48.298;10.008;2023-04-03T08:05:42;6.53;;;4.20;;
35961;SDS011;22044;48.298;10.008;2023-04-03T08:08:28;5.83;;;3.97;;
35961;SDS011;22044;48.298;10.008;2023-04-03T08:11:14;7.30;;;4.70;;
35961;SDS011;22044;48.298;10.008;2023-04-03T08:14:01;7.43;;;4.33;;
35961;SDS011;22044;48.298;10.008;2023-04-03T08:16:47;7.50;;;3.93;;
35961;SDS011;22044;48.298;10.008;2023-04-03T08:19:32;9.37;;;4.53;;
35961;SDS011;22044;48.298;10.008;2023-04-03T08:22:18;6.00;;;4.07;;
35961;SDS011;22044;48.298;10.008;2023-04-03T08:25:04;5.43;;;4.03;;
35961;SDS011;22044;48.298;10.008;2023-04-03T08:27:50;11.70;;;4.53;;
35961;SDS011;22044;48.298;10.008;2023-04-03T08:30:38;6.93;;;4.07;;
35961;SDS011;22044;48.298;10.008;2023-04-03T08:33:23;5.53;;;4.23;;
35961;SDS011;22044;48.298;10.008;2023-04-03T08:36:16;5.00;;;4.03;;
35961;SDS011;22044;48.298;10.008;2023-04-03T08:39:04;4.83;;;4.07;;
35961;SDS011;22044;48.298;10.008;2023-04-03T08:41:50;7.07;;;4.20;;
35961;SDS011;22044;48.298;10.008;2023-04-03T08:44:38;10.70;;;4.33;;
35961;SDS011;22044;48.298;10.008;2023-04-03T08:47:37;5.40;;;4.03;;
35961;SDS011;22044;48.298;10.008;2023-04-03T08:50:24;10.67;;;4.10;;
35961;SDS011;22044;48.298;10.008;2023-04-03T08:53:16;5.63;;;4.27;;
35961;SDS011;22044;48.298;10.008;2023-04-03T08:56:07;9.77;;;4.10;;
35961;SDS011;22044;48.298;10.008;2023-04-03T08:58:56;6.93;;;4.30;;
35961;SDS011;22044;48.298;10.008;2023-04-03T09:01:44;7.30;;;3.60;;
35961;SDS011;22044;48.298;10.008;2023-04-03T09:04:32;6.53;;;4.10;;
35961;SDS011;22044;48.298;10.008;2023-04-03T09:07:20;7.83;;;4.53;;
35961;SDS011;22044;48.298;10.008;2023-04-03T09:10:10;10.10;;;4.43;;
35961;SDS011;22044;48.298;10.008;2023-04-03T09:12:59;6.10;;;4.20;;
35961;SDS011;22044;48.298;10.008;2023-04-03T09:15:50;6.10;;;4.10;;
35961;SDS011;22044;48.298;10.008;2023-04-03T09:18:39;5.30;;;3.50;;
35961;SDS011;22044;48.298;10.008;2023-04-03T09:21:33;5.13;;;3.90;;
35961;SDS011;22044;48.298;10.008;2023-04-03T09:24:22;4.80;;;3.90;;
35961;SDS011;22044;48.298;10.008;2023-04-03T09:27:09;6.17;;;4.23;;
35961;SDS011;22044;48.298;10.008;2023-04-03T09:29:56;4.43;;;3.63;;
35961;SDS011;22044;48.298;10.008;2023-04-03T09:32:44;3.90;;;3.50;;
35961;SDS011;22044;48.298;10.008;2023-04-03T09:35:30;4.00;;;3.50;;
35961;SDS011;22044;48.298;10.008;2023-04-03T09:38:20;4.40;;;4.00;;
35961;SDS011;22044;48.298;10.008;2023-04-03T09:41:07;4.73;;;3.50;;
35961;SDS011;22044;48.298;10.008;2023-04-03T09:43:59;4.37;;;3.50;;
35961;SDS011;22044;48.298;10.008;2023-04-03T09:46:45;5.73;;;4.03;;
35961;SDS011;22044;48.298;10.008;2023-04-03T09:49:31;4.67;;;3.70;;
35961;SDS011;22044;48.298;10.008;2023-04-03T09:52:20;4.97;;;3.80;;
35961;SDS011;22044;48.298;10.008;2023-04-03T09:55:13;5.23;;;4.37;;
35961;SDS011;22044;48.298;10.008;2023-04-03T09:58:01;4.23;;;3.57;;
35961;SDS011;22044;48.298;10.008;2023-04-03T10:00:53;4.23;;;3.10;;
35961;SDS011;22044;48.298;10.008;2023-04-03T10:03:39;4.07;;;3.40;;
35961;SDS011;22044;48.298;10.008;2023-04-03T10:06:31;4.27;;;3.50;;
35961;SDS011;22044;48.298;10.008;2023-04-03T10:09:20;4.70;;;3.73;;
35961;SDS011;22044;48.298;10.008;2023-04-03T10:12:09;5.27;;;3.83;;
35961;SDS011;22044;48.298;10.008;2023-04-03T10:14:56;4.87;;;3.50;;
35961;SDS011;22044;48.298;10.008;2023-04-03T10:17:49;3.70;;;3.30;;
35961;SDS011;22044;48.298;10.008;2023-04-03T10:20:39;5.80;;;3.57;;
35961;SDS011;22044;48.298;10.008;2023-04-03T10:23:31;4.00;;;3.60;;
35961;SDS011;22044;48.298;10.008;2023-04-03T10:26:27;6.33;;;4.00;;
35961;SDS011;22044;48.298;10.008;2023-04-03T10:32:37;3.80;;;3.37;;
35961;SDS011;22044;48.298;10.008;2023-04-03T10:35:34;4.70;;;3.87;;
35961;SDS011;22044;48.298;10.008;2023-04-03T10:38:31;6.33;;;3.97;;
35961;SDS011;22044;48.298;10.008;2023-04-03T10:41:26;3.67;;;3.03;;
35961;SDS011;22044;48.298;10.008;2023-04-03T10:44:27;4.97;;;4.33;;
35961;SDS011;22044;48.298;10.008;2023-04-03T10:47:24;5.43;;;3.70;;
35961;SDS011;22044;48.298;10.008;2023-04-03T10:50:22;7.37;;;4.13;;
35961;SDS011;22044;48.298;10.008;2023-04-03T10:53:16;5.77;;;3.87;;
35961;SDS011;22044;48.298;10.008;2023-04-03T10:56:08;5.43;;;3.90;;
35961;SDS011;22044;48.298;10.008;2023-04-03T10:59:02;3.97;;;3.57;;
35961;SDS011;22044;48.298;10.008;2023-04-03T11:02:04;6.23;;;3.90;;
35961;SDS011;22044;48.298;10.008;2023-04-03T11:04:55;4.70;;;3.13;;
35961;SDS011;22044;48.298;10.008;2023-04-03T11:07:46;6.23;;;3.80;;
35961;SDS011;22044;48.298;10.008;2023-04-03T11:10:36;3.40;;;3.10;;
35961;SDS011;22044;48.298;10.008;2023-04-03T11:13:27;6.37;;;3.00;;
35961;SDS011;22044;48.298;10.008;2023-04-03T11:16:19;3.80;;;2.50;;
35961;SDS011;22044;48.298;10.008;2023-04-03T11:19:10;4.43;;;3.13;;
35961;SDS011;22044;48.298;10.008;2023-04-03T11:22:03;3.90;;;2.80;;
35961;SDS011;22044;48.298;10.008;2023-04-03T11:24:57;3.33;;;3.03;;
35961;SDS011;22044;48.298;10.008;2023-04-03T11:27:47;5.00;;;2.93;;
35961;SDS011;22044;48.298;10.008;2023-04-03T11:30:39;4.03;;;3.37;;
35961;SDS011;22044;48.298;10.008;2023-04-03T11:33:32;4.70;;;3.03;;
35961;SDS011;22044;48.298;10.008;2023-04-03T11:36:26;3.87;;;3.10;;
35961;SDS011;22044;48.298;10.008;2023-04-03T11:39:18;4.10;;;3.70;;
35961;SDS011;22044;48.298;10.008;2023-04-03T11:42:15;3.20;;;2.70;;
35961;SDS011;22044;48.298;10.008;2023-04-03T11:51:41;5.10;;;3.00;;
35961;SDS011;22044;48.298;10.008;2023-04-03T11:54:46;3.23;;;2.70;;
35961;SDS011;22044;48.298;10.008;2023-04-03T11:57:43;4.60;;;3.30;;
35961;SDS011;22044;48.298;10.008;2023-04-03T12:00:53;4.37;;;3.00;;
35961;SDS011;22044;48.298;10.008;2023-04-03T12:06:59;4.03;;;3.63;;
35961;SDS011;22044;48.298;10.008;2023-04-03T12:10:01;4.63;;;3.47;;
35961;SDS011;22044;48.298;10.008;2023-04-03T12:13:12;4.57;;;3.57;;
35961;SDS011;22044;48.298;10.008;2023-04-03T12:16:00;8.30;;;3.67;;
35961;SDS011;22044;48.298;10.008;2023-04-03T12:18:55;4.60;;;3.10;;
35961;SDS011;22044;48.298;10.008;2023-04-03T12:24:54;4.23;;;3.30;;
35961;SDS011;22044;48.298;10.008;2023-04-03T12:27:41;3.10;;;2.80;;
35961;SDS011;22044;48.298;10.008;2023-04-03T12:30:27;3.50;;;2.70;;
35961;SDS011;22044;48.298;10.008;2023-04-03T12:33:27;3.20;;;2.53;;
35961;SDS011;22044;48.298;10.008;2023-04-03T12:36:26;4.47;;;3.20;;
35961;SDS011;22044;48.298;10.008;2023-04-03T12:39:22;5.00;;;3.20;;
35961;SDS011;22044;48.298;10.008;2023-04-03T12:42:45;4.13;;;2.77;;
35961;SDS011;22044;48.298;10.008;2023-04-03T12:45:49;4.97;;;3.07;;
35961;SDS011;22044;48.298;10.008;2023-04-03T12:48:52;4.33;;;3.20;;
35961;SDS011;22044;48.298;10.008;2023-04-03T12:51:40;3.00;;;2.70;;
35961;SDS011;22044;48.298;10.008;2023-04-03T12:54:29;3.83;;;2.80;;
35961;SDS011;22044;48.298;10.008;2023-04-03T12:57:18;3.43;;;2.57;;
35961;SDS011;22044;48.298;10.008;2023-04-03T13:03:20;3.87;;;2.77;;
35961;SDS011;22044;48.298;10.008;2023-04-03T13:06:10;3.80;;;3.40;;
35961;SDS011;22044;48.298;10.008;2023-04-03T13:09:02;4.60;;;3.20;;
35961;SDS011;22044;48.298;10.008;2023-04-03T13:11:53;4.33;;;3.23;;
35961;SDS011;22044;48.298;10.008;2023-04-03T13:14:51;4.07;;;3.30;;
35961;SDS011;22044;48.298;10.008;2023-04-03T13:17:40;4.27;;;2.73;;
35961;SDS011;22044;48.298;10.008;2023-04-03T13:20:27;3.93;;;2.70;;
35961;SDS011;22044;48.298;10.008;2023-04-03T13:23:14;4.87;;;3.03;;
35961;SDS011;22044;48.298;10.008;2023-04-03T13:26:04;5.30;;;3.10;;
35961;SDS011;22044;48.298;10.008;2023-04-03T13:28:51;4.73;;;3.20;;
35961;SDS011;22044;48.298;10.008;2023-04-03T13:31:38;3.60;;;2.87;;
35961;SDS011;22044;48.298;10.008;2023-04-03T13:34:27;7.47;;;3.10;;
35961;SDS011;22044;48.298;10.008;2023-04-03T13:37:19;5.03;;;2.63;;
35961;SDS011;22044;48.298;10.008;2023-04-03T13:40:09;4.17;;;3.37;;
35961;SDS011;22044;48.298;10.008;2023-04-03T13:43:01;3.37;;;2.80;;
35961;SDS011;22044;48.298;10.008;2023-04-03T13:45:53;3.30;;;2.70;;
35961;SDS011;22044;48.298;10.008;2023-04-03T13:48:42;5.20;;;2.70;;
35961;SDS011;22044;48.298;10.008;2023-04-03T13:51:31;5.07;;;2.60;;
35961;SDS011;22044;48.298;10.008;2023-04-03T13:54:17;4.80;;;3.00;;
35961;SDS011;22044;48.298;10.008;2023-04-03T13:57:11;6.30;;;2.60;;
35961;SDS011;22044;48.298;10.008;2023-04-03T13:59:58;5.33;;;3.43;;
35961;SDS011;22044;48.298;10.008;2023-04-03T14:02:46;5.37;;;2.83;;
35961;SDS011;22044;48.298;10.008;2023-04-03T14:05:32;3.47;;;2.90;;
35961;SDS011;22044;48.298;10.008;2023-04-03T14:08:19;3.90;;;2.90;;
35961;SDS011;22044;48.298;10.008;2023-04-03T14:11:06;3.47;;;2.90;;
35961;SDS011;22044;48.298;10.008;2023-04-03T14:13:59;3.57;;;2.83;;
35961;SDS011;22044;48.298;10.008;2023-04-03T14:16:50;6.30;;;3.00;;
35961;SDS011;22044;48.298;10.008;2023-04-03T14:19:38;3.57;;;2.60;;
35961;SDS011;22044;48.298;10.008;2023-04-03T14:22:25;4.43;;;2.90;;
35961;SDS011;22044;48.298;10.008;2023-04-03T14:25:14;5.77;;;3.00;;
35961;SDS011;22044;48.298;10.008;2023-04-03T14:28:06;3.53;;;2.97;;
35961;SDS011;22044;48.298;10.008;2023-04-03T14:30:59;4.77;;;2.97;;
35961;SDS011;22044;48.298;10.008;2023-04-03T14:33:45;2.60;;;2.40;;
35961;SDS011;22044;48.298;10.008;2023-04-03T14:36:32;3.90;;;2.80;;
35961;SDS011;22044;48.298;10.008;2023-04-03T14:39:18;3.73;;;2.50;;
35961;SDS011;22044;48.298;10.008;2023-04-03T14:42:05;3.27;;;2.80;;
35961;SDS011;22044;48.298;10.008;2023-04-03T14:44:52;4.67;;;3.00;;
35961;SDS011;22044;48.298;10.008;2023-04-03T14:47:39;3.10;;;2.37;;
35961;SDS011;22044;48.298;10.008;2023-04-03T14:50:29;3.87;;;2.40;;
35961;SDS011;22044;48.298;10.008;2023-04-03T14:53:15;3.93;;;2.30;;
35961;SDS011;22044;48.298;10.008;2023-04-03T14:56:01;3.23;;;2.70;;
35961;SDS011;22044;48.298;10.008;2023-04-03T14:58:52;3.90;;;2.50;;
35961;SDS011;22044;48.298;10.008;2023-04-03T15:01:40;2.70;;;2.40;;
35961;SDS011;22044;48.298;10.008;2023-04-03T15:04:26;3.47;;;2.70;;
35961;SDS011;22044;48.298;10.008;2023-04-03T15:07:12;4.30;;;2.60;;
35961;SDS011;22044;48.298;10.008;2023-04-03T15:09:58;3.77;;;2.53;;
35961;SDS011;22044;48.298;10.008;2023-04-03T15:12:45;2.60;;;2.27;;
35961;SDS011;22044;48.298;10.008;2023-04-03T15:15:32;3.13;;;2.70;;
35961;SDS011;22044;48.298;10.008;2023-04-03T15:18:22;5.63;;;3.10;;
35961;SDS011;22044;48.298;10.008;2023-04-03T15:21:10;4.00;;;2.60;;
35961;SDS011;22044;48.298;10.008;2023-04-03T15:23:55;5.57;;;2.37;;
35961;SDS011;22044;48.298;10.008;2023-04-03T15:26:41;3.10;;;2.40;;
35961;SDS011;22044;48.298;10.008;2023-04-03T15:29:28;4.97;;;2.43;;
35961;SDS011;22044;48.298;10.008;2023-04-03T15:32:15;2.97;;;2.20;;
35961;SDS011;22044;48.298;10.008;2023-04-03T15:35:00;3.47;;;2.73;;
35961;SDS011;22044;48.298;10.008;2023-04-03T15:37:46;2.93;;;2.30;;
35961;SDS011;22044;48.298;10.008;2023-04-03T15:40:33;2.70;;;1.93;;
35961;SDS011;22044;48.298;10.008;2023-04-03T15:43:19;3.00;;;1.70;;
35961;SDS011;22044;48.298;10.008;2023-04-03T15:46:05;2.27;;;1.80;;
35961;SDS011;22044;48.298;10.008;2023-04-03T15:48:54;3.13;;;2.00;;
35961;SDS011;22044;48.298;10.008;2023-04-03T15:51:40;3.67;;;2.00;;
35961;SDS011;22044;48.298;10.008;2023-04-03T15:54:26;3.33;;;2.53;;
35961;SDS011;22044;48.298;10.008;2023-04-03T15:57:14;3.30;;;2.20;;
35961;SDS011;22044;48.298;10.008;2023-04-03T16:00:00;2.93;;;2.00;;
35961;SDS011;22044;48.298;10.008;2023-04-03T16:02:51;3.40;;;1.97;;
35961;SDS011;22044;48.298;10.008;2023-04-03T16:05:40;4.17;;;2.27;;
35961;SDS011;22044;48.298;10.008;2023-04-03T16:08:26;2.30;;;1.80;;
35961;SDS011;22044;48.298;10.008;2023-04-03T16:11:12;4.60;;;2.27;;
35961;SDS011;22044;48.298;10.008;2023-04-03T16:13:58;2.57;;;1.93;;
35961;SDS011;22044;48.298;10.008;2023-04-03T16:16:43;5.80;;;1.90;;
35961;SDS011;22044;48.298;10.008;2023-04-03T16:19:29;2.77;;;2.03;;
35961;SDS011;22044;48.298;10.008;2023-04-03T16:22:16;2.93;;;1.77;;
35961;SDS011;22044;48.298;10.008;2023-04-03T16:25:02;4.10;;;2.10;;
35961;SDS011;22044;48.298;10.008;2023-04-03T16:27:48;5.00;;;2.70;;
35961;SDS011;22044;48.298;10.008;2023-04-03T16:30:34;4.50;;;2.73;;
35961;SDS011;22044;48.298;10.008;2023-04-03T16:33:20;2.93;;;1.90;;
35961;SDS011;22044;48.298;10.008;2023-04-03T16:36:05;2.50;;;2.30;;
35961;SDS011;22044;48.298;10.008;2023-04-03T16:38:53;3.00;;;2.17;;
35961;SDS011;22044;48.298;10.008;2023-04-03T16:41:38;2.97;;;1.90;;
35961;SDS011;22044;48.298;10.008;2023-04-03T16:44:24;4.00;;;2.10;;
35961;SDS011;22044;48.298;10.008;2023-04-03T16:47:10;1.80;;;1.60;;
35961;SDS011;22044;48.298;10.008;2023-04-03T16:49:57;2.97;;;1.97;;
35961;SDS011;22044;48.298;10.008;2023-04-03T16:52:44;4.03;;;2.17;;
35961;SDS011;22044;48.298;10.008;2023-04-03T16:55:32;4.73;;;2.00;;
35961;SDS011;22044;48.298;10.008;2023-04-03T16:58:17;2.53;;;2.00;;